Time,TemperatureF,DewpointF,PressureIn,WindDirection,WindDirectionDegrees,WindSpeedMPH,WindSpeedGustMPH,Humidity,HourlyPrecipIn,Conditions,Clouds,dailyrainin,SoftwareType,DateUTC
2013-01-29 00:00:00,23.4,19.0,29.76,North,0,0.0,0.0,83,0.00,,,0.00,WUHU216HW,2013-01-29 05:00:00,
2013-01-29 00:03:00,23.4,19.0,29.76,North,0,0.0,0.0,83,0.00,,,0.00,WUHU216HW,2013-01-29 05:03:00,
2013-01-29 00:04:00,23.4,19.0,29.76,North,0,0.0,0.0,83,0.00,,,0.00,WUHU216HW,2013-01-29 05:04:00,
2013-01-29 00:09:00,23.4,19.0,29.76,North,0,0.0,0.0,83,0.00,,,0.00,WUHU216HW,2013-01-29 05:09:00,
2013-01-29 00:14:00,23.4,19.0,29.76,North,0,0.0,0.0,83,0.00,,,0.00,WUHU216HW,2013-01-29 05:14:00,
2013-01-29 00:19:00,23.4,19.0,29.76,North,0,0.0,0.0,83,0.00,,,0.00,WUHU216HW,2013-01-29 05:19:00,
2013-01-29 00:24:00,23.4,19.0,29.76,North,0,0.0,0.0,83,0.00,,,0.00,WUHU216HW,2013-01-29 05:24:00,
2013-01-29 00:29:00,23.4,19.0,29.76,North,0,0.0,0.0,83,0.00,,,0.00,WUHU216HW,2013-01-29 05:29:00,
2013-01-29 00:34:00,23.4,19.0,29.76,North,0,0.0,0.0,83,0.00,,,0.00,WUHU216HW,2013-01-29 05:34:00,
2013-01-29 00:39:00,23.4,19.0,29.76,North,0,0.0,0.0,83,0.00,,,0.00,WUHU216HW,2013-01-29 05:39:00,
2013-01-29 01:00:00,23.4,19.0,29.76,North,0,0.0,0.0,83,0.00,,,0.00,WUHU216HW,2013-01-29 06:00:00,
2013-01-29 01:05:00,23.4,19.0,29.76,North,0,0.0,0.0,83,0.00,,,0.00,WUHU216HW,2013-01-29 06:05:00,
2013-01-29 01:10:00,23.4,19.3,29.77,North,0,0.0,0.0,84,0.00,,,0.00,WUHU216HW,2013-01-29 06:10:00,
2013-01-29 01:15:00,23.4,19.3,29.77,North,0,0.0,0.0,84,0.00,,,0.00,WUHU216HW,2013-01-29 06:15:00,
2013-01-29 01:20:00,23.4,19.0,29.76,North,0,0.0,0.0,83,0.00,,,0.00,WUHU216HW,2013-01-29 06:20:00,
2013-01-29 01:25:00,23.4,19.0,29.77,North,0,0.0,0.0,83,0.00,,,0.00,WUHU216HW,2013-01-29 06:25:00,
2013-01-29 01:30:00,23.4,19.0,29.76,North,0,0.0,0.0,83,0.00,,,0.00,WUHU216HW,2013-01-29 06:30:00,
2013-01-29 01:35:00,23.4,19.3,29.76,North,0,0.0,0.0,84,0.00,,,0.00,WUHU216HW,2013-01-29 06:35:00,
2013-01-29 01:40:00,23.4,19.3,29.76,North,0,0.0,0.0,84,0.00,,,0.00,WUHU216HW,2013-01-29 06:40:00,
2013-01-29 02:00:00,23.4,19.3,29.77,North,0,0.0,0.0,84,0.00,,,0.00,WUHU216HW,2013-01-29 07:00:00,
2013-01-29 02:05:00,23.4,19.3,29.78,North,0,0.0,0.0,84,0.00,,,0.00,WUHU216HW,2013-01-29 07:05:00,
2013-01-29 02:10:00,23.4,19.3,29.78,North,0,0.0,0.0,84,0.00,,,0.00,WUHU216HW,2013-01-29 07:10:00,
2013-01-29 02:15:00,23.4,19.3,29.78,North,0,0.0,0.0,84,0.00,,,0.00,WUHU216HW,2013-01-29 07:15:00,
2013-01-29 02:20:00,23.4,19.3,29.78,North,0,0.0,0.0,84,0.00,,,0.00,WUHU216HW,2013-01-29 07:20:00,
2013-01-29 02:25:00,23.4,19.3,29.79,North,0,0.0,0.0,84,0.00,,,0.00,WUHU216HW,2013-01-29 07:25:00,
2013-01-29 02:30:00,23.4,19.3,29.79,North,0,0.0,0.0,84,0.00,,,0.00,WUHU216HW,2013-01-29 07:30:00,
2013-01-29 02:35:00,23.4,19.3,29.79,North,0,0.0,0.0,84,0.00,,,0.00,WUHU216HW,2013-01-29 07:35:00,
2013-01-29 02:40:00,23.4,19.3,29.79,North,0,0.0,0.0,84,0.00,,,0.00,WUHU216HW,2013-01-29 07:40:00,
2013-01-29 03:00:00,23.4,19.3,29.79,North,0,0.0,0.0,84,0.00,,,0.00,WUHU216HW,2013-01-29 08:00:00,
2013-01-29 03:05:00,23.4,19.3,29.79,North,0,0.0,0.0,84,0.00,,,0.00,WUHU216HW,2013-01-29 08:05:00,
2013-01-29 04:00:00,23.4,19.3,29.80,North,0,0.0,0.0,84,0.00,,,0.00,WUHU216HW,2013-01-29 09:00:00,
2013-01-29 04:05:00,23.4,19.3,29.80,North,0,0.0,0.0,84,0.00,,,0.00,WUHU216HW,2013-01-29 09:05:00,
2013-01-29 04:10:00,23.4,19.3,29.80,North,0,0.0,0.0,84,0.00,,,0.00,WUHU216HW,2013-01-29 09:10:00,
2013-01-29 04:15:00,23.4,19.3,29.80,North,0,0.0,0.0,84,0.00,,,0.00,WUHU216HW,2013-01-29 09:15:00,
2013-01-29 04:20:00,23.4,19.3,29.80,North,0,0.0,0.0,84,0.00,,,0.00,WUHU216HW,2013-01-29 09:20:00,
2013-01-29 04:25:00,23.4,19.3,29.80,North,0,0.0,0.0,84,0.00,,,0.00,WUHU216HW,2013-01-29 09:25:00,
2013-01-29 04:30:00,23.4,19.3,29.80,North,0,0.0,0.0,84,0.00,,,0.00,WUHU216HW,2013-01-29 09:30:00,
2013-01-29 04:35:00,23.4,19.3,29.80,North,0,0.0,0.0,84,0.00,,,0.00,WUHU216HW,2013-01-29 09:35:00,
2013-01-29 04:40:00,23.4,19.3,29.80,North,0,0.0,0.0,84,0.00,,,0.00,WUHU216HW,2013-01-29 09:40:00,
2013-01-29 05:00:00,23.4,19.3,29.81,North,0,0.0,0.0,84,0.00,,,0.00,WUHU216HW,2013-01-29 10:00:00,
2013-01-29 05:05:00,23.4,19.3,29.81,North,0,0.0,0.0,84,0.00,,,0.00,WUHU216HW,2013-01-29 10:05:00,
2013-01-29 05:10:00,23.4,19.3,29.81,North,0,0.0,0.0,84,0.00,,,0.00,WUHU216HW,2013-01-29 10:10:00,
2013-01-29 05:15:00,23.2,19.1,29.81,North,0,0.0,0.0,84,0.00,,,0.00,WUHU216HW,2013-01-29 10:15:00,
2013-01-29 05:20:00,23.2,19.1,29.81,North,0,0.0,0.0,84,0.00,,,0.00,WUHU216HW,2013-01-29 10:20:00,
2013-01-29 05:25:00,23.0,19.2,29.81,North,0,0.0,0.0,85,0.00,,,0.00,WUHU216HW,2013-01-29 10:25:00,
2013-01-29 05:30:00,23.0,19.2,29.82,North,0,0.0,0.0,85,0.00,,,0.00,WUHU216HW,2013-01-29 10:30:00,
2013-01-29 05:35:00,23.0,19.2,29.82,North,0,0.0,0.0,85,0.00,,,0.00,WUHU216HW,2013-01-29 10:35:00,
2013-01-29 05:40:00,23.0,19.2,29.82,North,0,0.0,0.0,85,0.00,,,0.00,WUHU216HW,2013-01-29 10:40:00,
2013-01-29 05:45:00,23.0,19.2,29.82,North,0,0.0,0.0,85,0.00,,,0.00,WUHU216HW,2013-01-29 10:45:00,
2013-01-29 06:00:00,23.0,18.9,29.84,North,0,0.0,0.0,84,0.00,,,0.00,WUHU216HW,2013-01-29 11:00:00,
2013-01-29 06:05:00,23.2,19.1,29.84,North,0,0.0,0.0,84,0.00,,,0.00,WUHU216HW,2013-01-29 11:05:00,
2013-01-29 06:10:00,23.2,19.1,29.84,North,0,0.0,0.0,84,0.00,,,0.00,WUHU216HW,2013-01-29 11:10:00,
2013-01-29 06:15:00,23.2,19.1,29.85,North,0,0.0,0.0,84,0.00,,,0.00,WUHU216HW,2013-01-29 11:15:00,
2013-01-29 06:20:00,23.0,19.2,29.85,North,0,0.0,0.0,85,0.00,,,0.00,WUHU216HW,2013-01-29 11:20:00,
2013-01-29 06:25:00,23.0,19.2,29.85,North,0,0.0,0.0,85,0.00,,,0.00,WUHU216HW,2013-01-29 11:25:00,
2013-01-29 06:30:00,23.0,19.2,29.85,North,0,0.0,0.0,85,0.00,,,0.00,WUHU216HW,2013-01-29 11:30:00,
2013-01-29 06:35:00,23.0,19.2,29.86,North,0,0.0,0.0,85,0.00,,,0.00,WUHU216HW,2013-01-29 11:35:00,
2013-01-29 06:40:00,23.0,19.2,29.86,North,0,0.0,0.0,85,0.00,,,0.00,WUHU216HW,2013-01-29 11:40:00,
2013-01-29 07:00:00,23.0,19.2,29.87,North,0,0.0,0.0,85,0.00,,,0.00,WUHU216HW,2013-01-29 12:00:00,
2013-01-29 07:05:00,23.0,19.2,29.87,North,0,0.0,0.0,85,0.00,,,0.00,WUHU216HW,2013-01-29 12:05:00,
2013-01-29 07:10:00,23.0,18.9,29.87,North,0,0.0,0.0,84,0.00,,,0.00,WUHU216HW,2013-01-29 12:10:00,
2013-01-29 07:15:00,23.2,19.1,29.88,North,0,0.0,0.0,84,0.00,,,0.00,WUHU216HW,2013-01-29 12:15:00,
2013-01-29 07:20:00,23.2,19.1,29.88,North,0,0.0,0.0,84,0.00,,,0.00,WUHU216HW,2013-01-29 12:20:00,
2013-01-29 07:25:00,23.2,19.1,29.88,North,0,0.0,0.0,84,0.00,,,0.00,WUHU216HW,2013-01-29 12:25:00,
2013-01-29 07:30:00,23.2,19.1,29.88,North,0,0.0,0.0,84,0.00,,,0.00,WUHU216HW,2013-01-29 12:30:00,
2013-01-29 07:35:00,23.4,19.3,29.88,North,0,0.0,0.0,84,0.00,,,0.00,WUHU216HW,2013-01-29 12:35:00,
2013-01-29 07:40:00,23.4,19.3,29.88,North,0,0.0,0.0,84,0.00,,,0.00,WUHU216HW,2013-01-29 12:40:00,
2013-01-29 08:00:00,23.6,19.4,29.89,North,0,0.0,0.0,84,0.00,,,0.00,WUHU216HW,2013-01-29 13:00:00,
2013-01-29 08:05:00,23.8,19.6,29.89,North,0,0.0,0.0,84,0.00,,,0.00,WUHU216HW,2013-01-29 13:05:00,
2013-01-29 08:10:00,23.9,19.8,29.90,North,0,0.0,0.0,84,0.00,,,0.00,WUHU216HW,2013-01-29 13:10:00,
2013-01-29 08:15:00,24.1,20.0,29.89,North,0,0.0,0.0,84,0.00,,,0.00,WUHU216HW,2013-01-29 13:15:00,
2013-01-29 08:20:00,24.1,20.0,29.90,North,0,0.0,0.0,84,0.00,,,0.00,WUHU216HW,2013-01-29 13:20:00,
2013-01-29 08:25:00,24.1,20.0,29.90,North,0,0.0,0.0,84,0.00,,,0.00,WUHU216HW,2013-01-29 13:25:00,
2013-01-29 08:30:00,24.3,20.2,29.90,North,0,0.0,0.0,84,0.00,,,0.00,WUHU216HW,2013-01-29 13:30:00,
2013-01-29 08:35:00,24.5,20.3,29.90,North,0,0.0,0.0,84,0.00,,,0.00,WUHU216HW,2013-01-29 13:35:00,
2013-01-29 08:40:00,24.5,20.3,29.90,North,0,0.0,0.0,84,0.00,,,0.00,WUHU216HW,2013-01-29 13:40:00,
2013-01-29 09:00:00,25.9,21.4,29.90,North,0,0.0,0.0,83,0.00,,,0.00,WUHU216HW,2013-01-29 14:00:00,
2013-01-29 09:05:00,26.3,21.8,29.90,North,0,0.0,0.0,83,0.00,,,0.00,WUHU216HW,2013-01-29 14:05:00,
2013-01-29 09:10:00,26.5,22.0,29.90,North,0,0.0,0.0,83,0.00,,,0.00,WUHU216HW,2013-01-29 14:10:00,
2013-01-29 09:15:00,27.0,22.5,29.89,North,0,0.0,0.0,83,0.00,,,0.00,WUHU216HW,2013-01-29 14:15:00,
2013-01-29 09:20:00,27.4,22.9,29.89,North,0,0.0,0.0,83,0.00,,,0.00,WUHU216HW,2013-01-29 14:20:00,
2013-01-29 09:25:00,27.7,22.9,29.89,North,0,0.0,0.0,82,0.00,,,0.00,WUHU216HW,2013-01-29 14:25:00,
2013-01-29 09:30:00,27.7,22.9,29.89,North,0,0.0,0.0,82,0.00,,,0.00,WUHU216HW,2013-01-29 14:30:00,
2013-01-29 09:33:00,28.1,23.2,29.89,North,0,0.0,0.0,82,0.00,,,0.00,WUHU216HW,2013-01-29 14:33:00,
2013-01-29 09:35:00,28.1,23.2,29.89,North,0,0.0,0.0,82,0.00,,,0.00,WUHU216HW,2013-01-29 14:35:00,
2013-01-29 09:40:00,28.1,23.2,29.89,North,0,0.0,0.0,82,0.00,,,0.00,WUHU216HW,2013-01-29 14:40:00,
2013-01-29 10:00:00,28.6,23.2,29.90,North,0,0.0,0.0,80,0.00,,,0.00,WUHU216HW,2013-01-29 15:00:00,
2013-01-29 10:05:00,28.8,23.4,29.90,North,0,0.0,0.0,80,0.00,,,0.00,WUHU216HW,2013-01-29 15:05:00,
2013-01-29 10:10:00,28.8,23.1,29.90,North,0,0.0,0.0,79,0.00,,,0.00,WUHU216HW,2013-01-29 15:10:00,
2013-01-29 10:15:00,28.8,23.1,29.90,North,0,0.0,0.0,79,0.00,,,0.00,WUHU216HW,2013-01-29 15:15:00,
2013-01-29 10:20:00,29.0,23.3,29.90,North,0,0.0,0.0,79,0.00,,,0.00,WUHU216HW,2013-01-29 15:20:00,
2013-01-29 10:25:00,29.2,23.5,29.90,North,0,0.0,0.0,79,0.00,,,0.00,WUHU216HW,2013-01-29 15:25:00,
2013-01-29 10:30:00,29.7,23.9,29.91,North,0,0.0,0.0,79,0.00,,,0.00,WUHU216HW,2013-01-29 15:30:00,
2013-01-29 10:35:00,29.9,24.1,29.91,North,0,0.0,0.0,79,0.00,,,0.00,WUHU216HW,2013-01-29 15:35:00,
2013-01-29 10:40:00,29.9,24.1,29.91,North,0,0.0,0.0,79,0.00,,,0.00,WUHU216HW,2013-01-29 15:40:00,
2013-01-29 11:00:00,31.1,25.1,29.92,North,0,0.0,0.0,78,0.00,,,0.00,WUHU216HW,2013-01-29 16:00:00,
2013-01-29 11:05:00,31.1,25.1,29.91,North,0,0.0,0.0,78,0.00,,,0.00,WUHU216HW,2013-01-29 16:05:00,
2013-01-29 11:10:00,31.3,25.3,29.91,North,0,0.0,0.0,78,0.00,,,0.00,WUHU216HW,2013-01-29 16:10:00,
2013-01-29 11:15:00,31.5,25.5,29.91,North,0,0.0,0.0,78,0.00,,,0.00,WUHU216HW,2013-01-29 16:15:00,
2013-01-29 11:20:00,31.7,25.7,29.91,North,0,0.0,0.0,78,0.00,,,0.00,WUHU216HW,2013-01-29 16:20:00,
2013-01-29 11:25:00,32.0,26.0,29.91,North,0,0.0,0.0,78,0.00,,,0.00,WUHU216HW,2013-01-29 16:25:00,
2013-01-29 11:30:00,32.4,26.3,29.90,North,0,0.0,0.0,78,0.00,,,0.00,WUHU216HW,2013-01-29 16:30:00,
2013-01-29 11:35:00,32.4,26.0,29.90,North,0,0.0,0.0,77,0.00,,,0.00,WUHU216HW,2013-01-29 16:35:00,
2013-01-29 11:40:00,32.6,26.2,29.90,North,0,0.0,0.0,77,0.00,,,0.00,WUHU216HW,2013-01-29 16:40:00,
2013-01-29 11:45:00,32.8,26.3,29.90,North,0,0.0,0.0,77,0.00,,,0.00,WUHU216HW,2013-01-29 16:45:00,
2013-01-29 11:51:00,33.1,26.6,29.90,North,0,0.0,0.0,77,0.00,,,0.00,WUHU216HW,2013-01-29 16:51:00,
2013-01-29 11:56:00,33.5,27.0,29.90,North,0,0.0,0.0,77,0.00,,,0.00,WUHU216HW,2013-01-29 16:56:00,
2013-01-29 12:01:00,33.5,26.6,29.90,North,0,0.0,0.0,76,0.00,,,0.00,WUHU216HW,2013-01-29 17:01:00,
2013-01-29 12:06:00,33.5,26.6,29.90,North,0,0.0,0.0,76,0.00,,,0.00,WUHU216HW,2013-01-29 17:06:00,
2013-01-29 12:11:00,33.8,27.0,29.90,North,0,0.0,0.0,76,0.00,,,0.00,WUHU216HW,2013-01-29 17:11:00,
2013-01-29 12:16:00,34.2,27.4,29.90,North,0,0.0,0.0,76,0.00,,,0.00,WUHU216HW,2013-01-29 17:16:00,
2013-01-29 12:21:00,34.4,27.6,29.90,North,0,0.0,0.0,76,0.00,,,0.00,WUHU216HW,2013-01-29 17:21:00,
2013-01-29 12:26:00,34.7,27.9,29.90,North,0,0.0,0.0,76,0.00,,,0.00,WUHU216HW,2013-01-29 17:26:00,
2013-01-29 12:31:00,34.7,27.5,29.89,North,0,0.0,0.0,75,0.00,,,0.00,WUHU216HW,2013-01-29 17:31:00,
2013-01-29 13:01:00,35.6,28.4,29.88,North,0,0.0,0.0,75,0.00,,,0.00,WUHU216HW,2013-01-29 18:01:00,
2013-01-29 13:06:00,35.8,28.6,29.87,North,0,0.0,0.0,75,0.00,,,0.00,WUHU216HW,2013-01-29 18:06:00,
2013-01-29 13:11:00,36.0,28.8,29.87,North,0,0.0,0.0,75,0.00,,,0.00,WUHU216HW,2013-01-29 18:11:00,
2013-01-29 13:16:00,36.2,29.0,29.87,North,0,0.0,0.0,75,0.00,,,0.00,WUHU216HW,2013-01-29 18:16:00,
2013-01-29 13:21:00,36.4,29.2,29.88,North,0,0.0,0.0,75,0.00,,,0.00,WUHU216HW,2013-01-29 18:21:00,
2013-01-29 13:26:00,36.5,29.7,29.87,North,0,0.0,0.0,76,0.00,,,0.00,WUHU216HW,2013-01-29 18:26:00,
2013-01-29 13:31:00,36.5,29.3,29.87,North,0,0.0,0.0,75,0.00,,,0.00,WUHU216HW,2013-01-29 18:31:00,
2013-01-29 13:36:00,36.5,29.3,29.87,North,0,0.0,0.0,75,0.00,,,0.00,WUHU216HW,2013-01-29 18:36:00,
2013-01-29 13:41:00,36.5,29.3,29.87,North,0,0.0,0.0,75,0.00,,,0.00,WUHU216HW,2013-01-29 18:41:00,
2013-01-29 14:00:00,36.4,28.8,29.86,North,0,0.0,0.0,74,0.01,,,0.00,WUHU216HW,2013-01-29 19:00:00,
2013-01-29 14:05:00,36.4,28.8,29.86,North,0,0.0,0.0,74,0.01,,,0.00,WUHU216HW,2013-01-29 19:05:00,
2013-01-29 14:10:00,36.5,29.3,29.86,North,0,0.0,0.0,75,0.01,,,0.00,WUHU216HW,2013-01-29 19:10:00,
2013-01-29 14:15:00,36.7,29.5,29.87,North,0,0.0,0.0,75,0.02,,,0.02,WUHU216HW,2013-01-29 19:15:00,
2013-01-29 14:20:00,36.7,29.5,29.87,North,0,0.0,0.0,75,0.02,,,0.02,WUHU216HW,2013-01-29 19:20:00,
2013-01-29 14:25:00,36.7,29.5,29.87,North,0,0.0,0.0,75,0.02,,,0.02,WUHU216HW,2013-01-29 19:25:00,
2013-01-29 14:30:00,36.5,29.3,29.87,North,0,0.0,0.0,75,0.02,,,0.02,WUHU216HW,2013-01-29 19:30:00,
2013-01-29 14:35:00,36.7,29.5,29.87,North,0,0.0,0.0,75,0.02,,,0.02,WUHU216HW,2013-01-29 19:35:00,
2013-01-29 14:40:00,36.7,29.5,29.87,North,0,0.0,0.0,75,0.02,,,0.02,WUHU216HW,2013-01-29 19:40:00,
2013-01-29 15:00:00,36.4,29.5,29.88,North,0,0.0,0.0,76,0.02,,,0.02,WUHU216HW,2013-01-29 20:00:00,
2013-01-29 15:05:00,36.2,29.4,29.87,North,0,0.0,0.0,76,0.02,,,0.02,WUHU216HW,2013-01-29 20:05:00,
2013-01-29 15:10:00,36.0,29.2,29.87,North,0,0.0,0.0,76,0.01,,,0.02,WUHU216HW,2013-01-29 20:10:00,
2013-01-29 15:15:00,36.0,29.2,29.87,North,0,0.0,0.0,76,0.01,,,0.02,WUHU216HW,2013-01-29 20:15:00,
2013-01-29 15:20:00,35.6,28.8,29.87,North,0,0.0,0.0,76,0.01,,,0.02,WUHU216HW,2013-01-29 20:20:00,
2013-01-29 15:25:00,35.6,28.8,29.87,North,0,0.0,0.0,76,0.01,,,0.02,WUHU216HW,2013-01-29 20:25:00,
2013-01-29 15:30:00,35.5,28.9,29.87,North,0,0.0,0.0,77,0.01,,,0.02,WUHU216HW,2013-01-29 20:30:00,
2013-01-29 15:35:00,35.5,28.9,29.87,North,0,0.0,0.0,77,0.01,,,0.02,WUHU216HW,2013-01-29 20:35:00,
2013-01-29 15:40:00,35.5,28.9,29.87,North,0,0.0,0.0,77,0.01,,,0.02,WUHU216HW,2013-01-29 20:40:00,
2013-01-29 16:04:00,34.6,28.4,29.87,North,0,0.0,0.0,78,0.01,,,0.02,WUHU216HW,2013-01-29 21:04:00,
2013-01-29 16:09:00,34.4,28.2,29.88,North,0,0.0,0.0,78,0.01,,,0.03,WUHU216HW,2013-01-29 21:09:00,
2013-01-29 16:14:00,34.2,28.3,29.88,North,0,0.0,0.0,79,0.01,,,0.03,WUHU216HW,2013-01-29 21:14:00,
2013-01-29 16:19:00,34.2,28.6,29.88,North,0,0.0,0.0,80,0.01,,,0.03,WUHU216HW,2013-01-29 21:19:00,
2013-01-29 16:24:00,34.0,28.4,29.88,North,0,0.0,0.0,80,0.01,,,0.03,WUHU216HW,2013-01-29 21:24:00,
2013-01-29 16:29:00,33.8,28.5,29.88,North,0,0.0,0.0,81,0.01,,,0.03,WUHU216HW,2013-01-29 21:29:00,
2013-01-29 16:34:00,33.8,28.5,29.88,North,0,0.0,0.0,81,0.01,,,0.03,WUHU216HW,2013-01-29 21:34:00,
2013-01-29 16:39:00,33.8,28.5,29.88,North,0,0.0,0.0,81,0.01,,,0.03,WUHU216HW,2013-01-29 21:39:00,
2013-01-29 17:00:00,33.5,28.5,29.87,North,0,0.0,0.0,82,0.00,,,0.03,WUHU216HW,2013-01-29 22:00:00,
2013-01-29 17:05:00,33.3,28.4,29.87,North,0,0.0,0.0,82,0.00,,,0.03,WUHU216HW,2013-01-29 22:05:00,
2013-01-29 17:10:00,33.3,28.4,29.87,North,0,0.0,0.0,82,0.00,,,0.03,WUHU216HW,2013-01-29 22:10:00,
2013-01-29 17:15:00,33.3,28.4,29.87,North,0,0.0,0.0,82,0.00,,,0.03,WUHU216HW,2013-01-29 22:15:00,
2013-01-29 17:20:00,33.1,27.9,29.88,North,0,0.0,0.0,81,0.00,,,0.03,WUHU216HW,2013-01-29 22:20:00,
2013-01-29 17:25:00,33.1,27.9,29.88,North,0,0.0,0.0,81,0.00,,,0.03,WUHU216HW,2013-01-29 22:25:00,
2013-01-29 17:30:00,33.1,27.9,29.88,North,0,0.0,0.0,81,0.00,,,0.03,WUHU216HW,2013-01-29 22:30:00,
2013-01-29 17:35:00,33.1,28.2,29.88,North,0,0.0,0.0,82,0.00,,,0.03,WUHU216HW,2013-01-29 22:35:00,
2013-01-29 17:40:00,33.1,28.2,29.88,North,0,0.0,0.0,82,0.00,,,0.03,WUHU216HW,2013-01-29 22:40:00,
2013-01-29 18:00:00,32.8,27.9,29.89,North,0,0.0,0.0,82,0.00,,,0.03,WUHU216HW,2013-01-29 23:00:00,
2013-01-29 18:05:00,32.8,27.9,29.88,North,0,0.0,0.0,82,0.00,,,0.03,WUHU216HW,2013-01-29 23:05:00,
2013-01-29 18:10:00,32.8,28.2,29.88,North,0,0.0,0.0,83,0.00,,,0.03,WUHU216HW,2013-01-29 23:10:00,
2013-01-29 18:15:00,32.6,28.0,29.87,North,0,0.0,0.0,83,0.00,,,0.03,WUHU216HW,2013-01-29 23:15:00,
2013-01-29 18:20:00,32.4,27.8,29.88,North,0,0.0,0.0,83,0.00,,,0.03,WUHU216HW,2013-01-29 23:20:00,
2013-01-29 18:25:00,32.4,27.8,29.88,North,0,0.0,0.0,83,0.00,,,0.03,WUHU216HW,2013-01-29 23:25:00,
2013-01-29 18:30:00,32.4,27.8,29.88,North,0,0.0,0.0,83,0.00,,,0.03,WUHU216HW,2013-01-29 23:30:00,
2013-01-29 18:35:00,32.4,27.8,29.89,North,0,0.0,0.0,83,0.00,,,0.03,WUHU216HW,2013-01-29 23:35:00,
2013-01-29 18:41:00,32.4,27.8,29.89,North,0,0.0,0.0,83,0.00,,,0.03,WUHU216HW,2013-01-29 23:41:00,
2013-01-29 19:00:00,32.0,27.8,29.89,North,0,0.0,0.0,84,0.00,,,0.03,WUHU216HW,2013-01-30 00:00:00,
2013-01-29 19:05:00,32.0,27.8,29.88,North,0,0.0,0.0,84,0.00,,,0.03,WUHU216HW,2013-01-30 00:05:00,
2013-01-29 19:10:00,32.0,27.8,29.88,North,0,0.0,0.0,84,0.00,,,0.03,WUHU216HW,2013-01-30 00:10:00,
2013-01-29 19:15:00,32.0,27.8,29.89,North,0,0.0,0.0,84,0.00,,,0.03,WUHU216HW,2013-01-30 00:15:00,
2013-01-29 19:20:00,31.9,27.9,29.90,North,0,0.0,0.0,85,0.00,,,0.03,WUHU216HW,2013-01-30 00:20:00,
2013-01-29 19:25:00,32.0,27.8,29.90,North,0,0.0,0.0,84,0.00,,,0.03,WUHU216HW,2013-01-30 00:25:00,
2013-01-29 19:30:00,31.9,27.6,29.90,North,0,0.0,0.0,84,0.00,,,0.03,WUHU216HW,2013-01-30 00:30:00,
2013-01-29 19:35:00,31.9,27.6,29.90,North,0,0.0,0.0,84,0.00,,,0.03,WUHU216HW,2013-01-30 00:35:00,
2013-01-29 19:40:00,31.9,27.6,29.90,North,0,0.0,0.0,84,0.00,,,0.03,WUHU216HW,2013-01-30 00:40:00,
2013-01-29 19:45:00,31.9,27.9,29.90,North,0,0.0,0.0,85,0.00,,,0.03,WUHU216HW,2013-01-30 00:45:00,
2013-01-29 19:50:00,31.9,27.9,29.90,North,0,0.0,0.0,85,0.00,,,0.03,WUHU216HW,2013-01-30 00:50:00,
2013-01-29 19:55:00,31.9,27.9,29.90,North,0,0.0,0.0,85,0.00,,,0.03,WUHU216HW,2013-01-30 00:55:00,
2013-01-29 20:00:00,31.9,27.9,29.90,North,0,0.0,0.0,85,0.00,,,0.03,WUHU216HW,2013-01-30 01:00:00,
2013-01-29 20:05:00,31.9,27.9,29.90,North,0,0.0,0.0,85,0.00,,,0.03,WUHU216HW,2013-01-30 01:05:00,
2013-01-29 20:10:00,32.0,28.1,29.90,North,0,0.0,0.0,85,0.00,,,0.03,WUHU216HW,2013-01-30 01:10:00,
2013-01-29 20:15:00,31.9,28.2,29.90,North,0,0.0,0.0,86,0.00,,,0.03,WUHU216HW,2013-01-30 01:15:00,
2013-01-29 20:20:00,31.9,28.2,29.90,North,0,0.0,0.0,86,0.00,,,0.03,WUHU216HW,2013-01-30 01:20:00,
2013-01-29 20:25:00,31.9,28.2,29.89,North,0,0.0,0.0,86,0.00,,,0.03,WUHU216HW,2013-01-30 01:25:00,
2013-01-29 20:30:00,31.9,28.2,29.89,North,0,0.0,0.0,86,0.00,,,0.03,WUHU216HW,2013-01-30 01:30:00,
2013-01-29 20:35:00,31.9,28.2,29.89,North,0,0.0,0.0,86,0.00,,,0.03,WUHU216HW,2013-01-30 01:35:00,
2013-01-29 20:40:00,31.9,28.2,29.89,North,0,0.0,0.0,86,0.00,,,0.03,WUHU216HW,2013-01-30 01:40:00,
2013-01-29 21:00:00,31.7,28.0,29.88,North,0,0.0,0.0,86,0.00,,,0.03,WUHU216HW,2013-01-30 02:00:00,
2013-01-29 21:05:00,31.7,28.0,29.88,North,0,0.0,0.0,86,0.00,,,0.03,WUHU216HW,2013-01-30 02:05:00,
2013-01-29 21:10:00,31.7,28.3,29.88,North,0,0.0,0.0,87,0.00,,,0.03,WUHU216HW,2013-01-30 02:10:00,
2013-01-29 21:15:00,31.7,28.3,29.88,North,0,0.0,0.0,87,0.00,,,0.03,WUHU216HW,2013-01-30 02:15:00,
2013-01-29 21:20:00,31.7,28.3,29.88,North,0,0.0,0.0,87,0.00,,,0.03,WUHU216HW,2013-01-30 02:20:00,
2013-01-29 21:25:00,31.7,28.3,29.87,North,0,0.0,0.0,87,0.00,,,0.03,WUHU216HW,2013-01-30 02:25:00,
2013-01-29 21:30:00,31.7,28.3,29.87,North,0,0.0,0.0,87,0.00,,,0.03,WUHU216HW,2013-01-30 02:30:00,
2013-01-29 21:35:00,31.7,28.3,29.87,North,0,0.0,0.0,87,0.00,,,0.03,WUHU216HW,2013-01-30 02:35:00,
2013-01-29 21:40:00,31.7,28.3,29.87,North,0,0.0,0.0,87,0.00,,,0.03,WUHU216HW,2013-01-30 02:40:00,
2013-01-29 22:00:00,31.9,28.4,29.87,North,0,0.0,0.0,87,0.00,,,0.03,WUHU216HW,2013-01-30 03:00:00,
2013-01-29 22:05:00,31.9,28.4,29.87,North,0,0.0,0.0,87,0.00,,,0.03,WUHU216HW,2013-01-30 03:05:00,
2013-01-29 22:10:00,31.9,28.4,29.87,North,0,0.0,0.0,87,0.00,,,0.03,WUHU216HW,2013-01-30 03:10:00,
2013-01-29 22:15:00,31.9,28.4,29.87,North,0,0.0,0.0,87,0.00,,,0.03,WUHU216HW,2013-01-30 03:15:00,
2013-01-29 22:20:00,31.9,28.4,29.87,North,0,0.0,0.0,87,0.00,,,0.03,WUHU216HW,2013-01-30 03:20:00,
2013-01-29 22:25:00,31.9,28.8,29.86,North,0,0.0,0.0,88,0.00,,,0.03,WUHU216HW,2013-01-30 03:25:00,
2013-01-29 22:30:00,31.9,28.8,29.86,North,0,0.0,0.0,88,0.00,,,0.03,WUHU216HW,2013-01-30 03:30:00,
2013-01-29 22:35:00,32.0,28.6,29.86,North,0,0.0,0.0,87,0.00,,,0.03,WUHU216HW,2013-01-30 03:35:00,
2013-01-29 22:40:00,32.0,28.6,29.86,North,0,0.0,0.0,87,0.00,,,0.03,WUHU216HW,2013-01-30 03:40:00,
2013-01-29 23:00:00,32.0,29.0,29.85,North,0,0.0,0.0,88,0.00,,,0.03,WUHU216HW,2013-01-30 04:00:00,
2013-01-29 23:05:00,32.0,29.0,29.85,North,0,0.0,0.0,88,0.00,,,0.03,WUHU216HW,2013-01-30 04:05:00,
2013-01-29 23:10:00,32.0,29.0,29.85,North,0,0.0,0.0,88,0.00,,,0.03,WUHU216HW,2013-01-30 04:10:00,
2013-01-29 23:15:00,32.0,29.0,29.86,North,0,0.0,0.0,88,0.00,,,0.03,WUHU216HW,2013-01-30 04:15:00,
2013-01-29 23:20:00,32.0,29.0,29.86,North,0,0.0,0.0,88,0.00,,,0.03,WUHU216HW,2013-01-30 04:20:00,
2013-01-29 23:25:00,32.0,29.0,29.87,North,0,0.0,0.0,88,0.00,,,0.03,WUHU216HW,2013-01-30 04:25:00,
2013-01-29 23:30:00,32.0,29.0,29.87,North,0,0.0,0.0,88,0.00,,,0.03,WUHU216HW,2013-01-30 04:30:00,
2013-01-29 23:35:00,32.0,29.0,29.87,North,0,0.0,0.0,88,0.00,,,0.03,WUHU216HW,2013-01-30 04:35:00,
2013-01-29 23:40:00,32.0,29.0,29.87,North,0,0.0,0.0,88,0.00,,,0.03,WUHU216HW,2013-01-30 04:40:00,